sensor_id;sensor_type;location;lat;lon;timestamp;P1;durP1;ratioP1;P2;durP2;ratioP2
54855;SDS011;40748;53.168;5.800;2023-01-26T00:01:34;1.30;;;0.40;;
54855;SDS011;40748;53.168;5.800;2023-01-26T00:04:04;1.30;;;0.40;;
54855;SDS011;40748;53.168;5.800;2023-01-26T00:06:34;0.30;;;0.10;;
54855;SDS011;40748;53.168;5.800;2023-01-26T00:09:04;0.30;;;0.10;;
54855;SDS011;40748;53.168;5.800;2023-01-26T00:11:34;0.30;;;0.10;;
54855;SDS011;40748;53.168;5.800;2023-01-26T00:16:34;3.20;;;1.70;;
54855;SDS011;40748;53.168;5.800;2023-01-26T00:19:04;3.20;;;1.70;;
54855;SDS011;40748;53.168;5.800;2023-01-26T00:21:34;3.20;;;1.70;;
54855;SDS011;40748;53.168;5.800;2023-01-26T00:24:05;3.20;;;1.70;;
54855;SDS011;40748;53.168;5.800;2023-01-26T00:26:34;0.60;;;0.30;;
54855;SDS011;40748;53.168;5.800;2023-01-26T00:29:04;0.60;;;0.30;;
54855;SDS011;40748;53.168;5.800;2023-01-26T00:31:34;0.60;;;0.30;;
54855;SDS011;40748;53.168;5.800;2023-01-26T00:34:04;0.60;;;0.30;;
54855;SDS011;40748;53.168;5.800;2023-01-26T00:36:34;0.60;;;0.50;;
54855;SDS011;40748;53.168;5.800;2023-01-26T00:39:04;0.60;;;0.50;;
54855;SDS011;40748;53.168;5.800;2023-01-26T00:41:34;0.60;;;0.50;;
54855;SDS011;40748;53.168;5.800;2023-01-26T00:44:05;0.60;;;0.50;;
54855;SDS011;40748;53.168;5.800;2023-01-26T00:51:35;0.20;;;0.10;;
54855;SDS011;40748;53.168;5.800;2023-01-26T00:56:34;1.90;;;0.20;;
54855;SDS011;40748;53.168;5.800;2023-01-26T00:59:04;1.90;;;0.20;;
54855;SDS011;40748;53.168;5.800;2023-01-26T01:01:34;1.90;;;0.20;;
54855;SDS011;40748;53.168;5.800;2023-01-26T01:04:05;1.90;;;0.20;;
54855;SDS011;40748;53.168;5.800;2023-01-26T01:06:35;0.40;;;0.20;;
54855;SDS011;40748;53.168;5.800;2023-01-26T01:09:05;0.40;;;0.20;;
54855;SDS011;40748;53.168;5.800;2023-01-26T01:11:35;0.40;;;0.20;;
54855;SDS011;40748;53.168;5.800;2023-01-26T01:14:04;0.40;;;0.20;;
54855;SDS011;40748;53.168;5.800;2023-01-26T01:16:35;0.70;;;0.30;;
54855;SDS011;40748;53.168;5.800;2023-01-26T01:19:04;0.70;;;0.30;;
54855;SDS011;40748;53.168;5.800;2023-01-26T01:21:34;0.70;;;0.30;;
54855;SDS011;40748;53.168;5.800;2023-01-26T01:24:05;0.70;;;0.30;;
54855;SDS011;40748;53.168;5.800;2023-01-26T01:26:34;0.20;;;0.00;;
54855;SDS011;40748;53.168;5.800;2023-01-26T01:29:05;0.20;;;0.00;;
54855;SDS011;40748;53.168;5.800;2023-01-26T01:31:34;0.20;;;0.00;;
54855;SDS011;40748;53.168;5.800;2023-01-26T01:34:05;0.20;;;0.00;;
54855;SDS011;40748;53.168;5.800;2023-01-26T01:36:34;0.10;;;0.00;;
54855;SDS011;40748;53.168;5.800;2023-01-26T01:39:05;0.10;;;0.00;;
54855;SDS011;40748;53.168;5.800;2023-01-26T01:41:35;0.10;;;0.00;;
54855;SDS011;40748;53.168;5.800;2023-01-26T01:44:15;0.10;;;0.00;;
54855;SDS011;40748;53.168;5.800;2023-01-26T01:46:35;0.10;;;0.00;;
54855;SDS011;40748;53.168;5.800;2023-01-26T01:49:13;0.10;;;0.00;;
54855;SDS011;40748;53.168;5.800;2023-01-26T01:51:37;0.10;;;0.00;;
54855;SDS011;40748;53.168;5.800;2023-01-26T01:56:36;0.10;;;0.00;;
54855;SDS011;40748;53.168;5.800;2023-01-26T01:59:06;0.10;;;0.00;;
54855;SDS011;40748;53.168;5.800;2023-01-26T02:01:35;0.10;;;0.00;;
54855;SDS011;40748;53.168;5.800;2023-01-26T02:04:06;0.10;;;0.00;;
54855;SDS011;40748;53.168;5.800;2023-01-26T02:06:38;0.40;;;0.10;;
54855;SDS011;40748;53.168;5.800;2023-01-26T02:09:06;0.40;;;0.10;;
54855;SDS011;40748;53.168;5.800;2023-01-26T02:11:38;0.40;;;0.10;;
54855;SDS011;40748;53.168;5.800;2023-01-26T02:14:07;0.40;;;0.10;;
54855;SDS011;40748;53.168;5.800;2023-01-26T02:16:35;0.80;;;0.50;;
54855;SDS011;40748;53.168;5.800;2023-01-26T02:21:35;0.80;;;0.50;;
54855;SDS011;40748;53.168;5.800;2023-01-26T02:24:11;0.80;;;0.50;;
54855;SDS011;40748;53.168;5.800;2023-01-26T02:26:35;0.60;;;0.40;;
54855;SDS011;40748;53.168;5.800;2023-01-26T02:29:07;0.60;;;0.40;;
54855;SDS011;40748;53.168;5.800;2023-01-26T02:31:35;0.60;;;0.40;;
54855;SDS011;40748;53.168;5.800;2023-01-26T02:34:05;0.60;;;0.40;;
54855;SDS011;40748;53.168;5.800;2023-01-26T02:36:34;0.40;;;0.20;;
54855;SDS011;40748;53.168;5.800;2023-01-26T02:39:19;0.40;;;0.20;;
54855;SDS011;40748;53.168;5.800;2023-01-26T02:41:35;0.40;;;0.20;;
54855;SDS011;40748;53.168;5.800;2023-01-26T02:44:08;0.40;;;0.20;;
54855;SDS011;40748;53.168;5.800;2023-01-26T02:46:35;0.20;;;0.00;;
54855;SDS011;40748;53.168;5.800;2023-01-26T02:49:04;0.20;;;0.00;;
54855;SDS011;40748;53.168;5.800;2023-01-26T02:51:34;0.20;;;0.00;;
54855;SDS011;40748;53.168;5.800;2023-01-26T02:54:05;0.20;;;0.00;;
54855;SDS011;40748;53.168;5.800;2023-01-26T02:56:34;0.10;;;0.00;;
54855;SDS011;40748;53.168;5.800;2023-01-26T02:59:05;0.10;;;0.00;;
54855;SDS011;40748;53.168;5.800;2023-01-26T03:01:34;0.10;;;0.00;;
54855;SDS011;40748;53.168;5.800;2023-01-26T03:04:05;0.10;;;0.00;;
54855;SDS011;40748;53.168;5.800;2023-01-26T03:06:34;2.00;;;0.50;;
54855;SDS011;40748;53.168;5.800;2023-01-26T03:11:35;2.00;;;0.50;;
54855;SDS011;40748;53.168;5.800;2023-01-26T03:14:04;2.00;;;0.50;;
54855;SDS011;40748;53.168;5.800;2023-01-26T03:16:34;0.90;;;0.40;;
54855;SDS011;40748;53.168;5.800;2023-01-26T03:19:08;0.90;;;0.40;;
54855;SDS011;40748;53.168;5.800;2023-01-26T03:21:35;0.90;;;0.40;;
54855;SDS011;40748;53.168;5.800;2023-01-26T03:24:07;0.90;;;0.40;;
54855;SDS011;40748;53.168;5.800;2023-01-26T03:26:35;0.70;;;0.70;;
54855;SDS011;40748;53.168;5.800;2023-01-26T03:29:05;0.70;;;0.70;;
54855;SDS011;40748;53.168;5.800;2023-01-26T03:31:34;0.70;;;0.70;;
54855;SDS011;40748;53.168;5.800;2023-01-26T03:34:04;0.70;;;0.70;;
54855;SDS011;40748;53.168;5.800;2023-01-26T03:36:35;0.60;;;0.40;;
54855;SDS011;40748;53.168;5.800;2023-01-26T03:39:05;0.60;;;0.40;;
54855;SDS011;40748;53.168;5.800;2023-01-26T03:41:34;0.60;;;0.40;;
54855;SDS011;40748;53.168;5.800;2023-01-26T03:44:04;0.60;;;0.40;;
54855;SDS011;40748;53.168;5.800;2023-01-26T03:46:34;0.20;;;0.00;;
54855;SDS011;40748;53.168;5.800;2023-01-26T03:49:05;0.20;;;0.00;;
54855;SDS011;40748;53.168;5.800;2023-01-26T03:51:35;0.20;;;0.00;;
54855;SDS011;40748;53.168;5.800;2023-01-26T03:54:05;0.20;;;0.00;;
54855;SDS011;40748;53.168;5.800;2023-01-26T03:56:34;0.30;;;0.20;;
54855;SDS011;40748;53.168;5.800;2023-01-26T03:59:06;0.30;;;0.20;;
54855;SDS011;40748;53.168;5.800;2023-01-26T04:01:36;0.30;;;0.20;;
54855;SDS011;40748;53.168;5.800;2023-01-26T04:04:06;0.30;;;0.20;;
54855;SDS011;40748;53.168;5.800;2023-01-26T04:06:36;0.10;;;0.00;;
54855;SDS011;40748;53.168;5.800;2023-01-26T04:09:05;0.10;;;0.00;;
54855;SDS011;40748;53.168;5.800;2023-01-26T04:11:35;0.10;;;0.00;;
54855;SDS011;40748;53.168;5.800;2023-01-26T04:14:05;0.10;;;0.00;;
54855;SDS011;40748;53.168;5.800;2023-01-26T04:16:35;1.20;;;0.90;;
54855;SDS011;40748;53.168;5.800;2023-01-26T04:19:05;1.20;;;0.90;;
54855;SDS011;40748;53.168;5.800;2023-01-26T04:21:35;1.20;;;0.90;;
54855;SDS011;40748;53.168;5.800;2023-01-26T04:24:05;1.20;;;0.90;;
54855;SDS011;40748;53.168;5.800;2023-01-26T04:26:35;0.60;;;0.60;;
54855;SDS011;40748;53.168;5.800;2023-01-26T04:29:07;0.60;;;0.60;;
54855;SDS011;40748;53.168;5.800;2023-01-26T04:31:35;0.60;;;0.60;;
54855;SDS011;40748;53.168;5.800;2023-01-26T04:34:08;0.60;;;0.60;;
54855;SDS011;40748;53.168;5.800;2023-01-26T04:36:35;4.50;;;0.40;;
54855;SDS011;40748;53.168;5.800;2023-01-26T04:39:05;4.50;;;0.40;;
54855;SDS011;40748;53.168;5.800;2023-01-26T04:41:35;4.50;;;0.40;;
54855;SDS011;40748;53.168;5.800;2023-01-26T04:44:05;4.50;;;0.40;;
54855;SDS011;40748;53.168;5.800;2023-01-26T04:46:35;0.40;;;0.20;;
54855;SDS011;40748;53.168;5.800;2023-01-26T04:49:05;0.40;;;0.20;;
54855;SDS011;40748;53.168;5.800;2023-01-26T04:51:35;0.40;;;0.20;;
54855;SDS011;40748;53.168;5.800;2023-01-26T04:54:05;0.40;;;0.20;;
54855;SDS011;40748;53.168;5.800;2023-01-26T04:56:35;0.60;;;0.40;;
54855;SDS011;40748;53.168;5.800;2023-01-26T04:59:06;0.60;;;0.40;;
54855;SDS011;40748;53.168;5.800;2023-01-26T05:01:35;0.60;;;0.40;;
54855;SDS011;40748;53.168;5.800;2023-01-26T05:04:05;0.60;;;0.40;;
54855;SDS011;40748;53.168;5.800;2023-01-26T05:06:35;0.30;;;0.10;;
54855;SDS011;40748;53.168;5.800;2023-01-26T05:09:05;0.30;;;0.10;;
54855;SDS011;40748;53.168;5.800;2023-01-26T05:11:35;0.30;;;0.10;;
54855;SDS011;40748;53.168;5.800;2023-01-26T05:14:05;0.30;;;0.10;;
54855;SDS011;40748;53.168;5.800;2023-01-26T05:16:35;0.30;;;0.20;;
54855;SDS011;40748;53.168;5.800;2023-01-26T05:19:05;0.30;;;0.20;;
54855;SDS011;40748;53.168;5.800;2023-01-26T05:21:35;0.30;;;0.20;;
54855;SDS011;40748;53.168;5.800;2023-01-26T05:24:05;0.30;;;0.20;;
54855;SDS011;40748;53.168;5.800;2023-01-26T05:26:35;0.30;;;0.10;;
54855;SDS011;40748;53.168;5.800;2023-01-26T05:29:05;0.30;;;0.10;;
54855;SDS011;40748;53.168;5.800;2023-01-26T05:31:35;0.30;;;0.10;;
54855;SDS011;40748;53.168;5.800;2023-01-26T05:34:05;0.30;;;0.10;;
54855;SDS011;40748;53.168;5.800;2023-01-26T05:36:35;0.10;;;0.00;;
54855;SDS011;40748;53.168;5.800;2023-01-26T05:39:05;0.10;;;0.00;;
54855;SDS011;40748;53.168;5.800;2023-01-26T05:41:35;0.10;;;0.00;;
54855;SDS011;40748;53.168;5.800;2023-01-26T05:44:05;0.10;;;0.00;;
54855;SDS011;40748;53.168;5.800;2023-01-26T05:46:35;0.40;;;0.20;;
54855;SDS011;40748;53.168;5.800;2023-01-26T05:49:05;0.40;;;0.20;;
54855;SDS011;40748;53.168;5.800;2023-01-26T05:51:35;0.40;;;0.20;;
54855;SDS011;40748;53.168;5.800;2023-01-26T05:54:05;0.40;;;0.20;;
54855;SDS011;40748;53.168;5.800;2023-01-26T05:56:35;0.30;;;0.10;;
54855;SDS011;40748;53.168;5.800;2023-01-26T06:01:35;0.30;;;0.10;;
54855;SDS011;40748;53.168;5.800;2023-01-26T06:04:05;0.30;;;0.10;;
54855;SDS011;40748;53.168;5.800;2023-01-26T06:06:35;0.20;;;0.00;;
54855;SDS011;40748;53.168;5.800;2023-01-26T06:09:05;0.20;;;0.00;;
54855;SDS011;40748;53.168;5.800;2023-01-26T06:14:06;0.20;;;0.00;;
54855;SDS011;40748;53.168;5.800;2023-01-26T06:16:35;0.30;;;0.10;;
54855;SDS011;40748;53.168;5.800;2023-01-26T06:19:05;0.30;;;0.10;;
54855;SDS011;40748;53.168;5.800;2023-01-26T06:21:35;0.30;;;0.10;;
54855;SDS011;40748;53.168;5.800;2023-01-26T06:24:06;0.30;;;0.10;;
54855;SDS011;40748;53.168;5.800;2023-01-26T06:26:35;0.30;;;0.10;;
54855;SDS011;40748;53.168;5.800;2023-01-26T06:29:05;0.30;;;0.10;;
54855;SDS011;40748;53.168;5.800;2023-01-26T06:31:35;0.30;;;0.10;;
54855;SDS011;40748;53.168;5.800;2023-01-26T06:36:36;0.10;;;0.00;;
54855;SDS011;40748;53.168;5.800;2023-01-26T06:39:05;0.10;;;0.00;;
54855;SDS011;40748;53.168;5.800;2023-01-26T06:41:35;0.10;;;0.00;;
54855;SDS011;40748;53.168;5.800;2023-01-26T06:44:05;0.10;;;0.00;;
54855;SDS011;40748;53.168;5.800;2023-01-26T06:46:35;0.20;;;0.00;;
54855;SDS011;40748;53.168;5.800;2023-01-26T06:51:46;0.20;;;0.00;;
54855;SDS011;40748;53.168;5.800;2023-01-26T06:54:05;0.20;;;0.00;;
54855;SDS011;40748;53.168;5.800;2023-01-26T06:59:05;2.70;;;1.50;;
54855;SDS011;40748;53.168;5.800;2023-01-26T07:01:37;2.70;;;1.50;;
54855;SDS011;40748;53.168;5.800;2023-01-26T07:04:05;2.70;;;1.50;;
54855;SDS011;40748;53.168;5.800;2023-01-26T07:06:35;0.50;;;0.30;;
54855;SDS011;40748;53.168;5.800;2023-01-26T07:09:05;0.50;;;0.30;;
54855;SDS011;40748;53.168;5.800;2023-01-26T07:11:35;0.50;;;0.30;;
54855;SDS011;40748;53.168;5.800;2023-01-26T07:14:05;0.50;;;0.30;;
54855;SDS011;40748;53.168;5.800;2023-01-26T07:16:35;0.20;;;0.00;;
54855;SDS011;40748;53.168;5.800;2023-01-26T07:19:05;0.20;;;0.00;;
54855;SDS011;40748;53.168;5.800;2023-01-26T07:21:35;0.20;;;0.00;;
54855;SDS011;40748;53.168;5.800;2023-01-26T07:26:35;0.30;;;0.10;;
54855;SDS011;40748;53.168;5.800;2023-01-26T07:29:05;0.30;;;0.10;;
54855;SDS011;40748;53.168;5.800;2023-01-26T07:31:35;0.30;;;0.10;;
54855;SDS011;40748;53.168;5.800;2023-01-26T07:34:05;0.30;;;0.10;;
54855;SDS011;40748;53.168;5.800;2023-01-26T07:36:35;0.20;;;0.10;;
54855;SDS011;40748;53.168;5.800;2023-01-26T07:39:05;0.20;;;0.10;;
54855;SDS011;40748;53.168;5.800;2023-01-26T07:41:35;0.20;;;0.10;;
54855;SDS011;40748;53.168;5.800;2023-01-26T07:44:08;0.20;;;0.10;;
54855;SDS011;40748;53.168;5.800;2023-01-26T07:46:35;0.30;;;0.10;;
54855;SDS011;40748;53.168;5.800;2023-01-26T07:49:05;0.30;;;0.10;;
54855;SDS011;40748;53.168;5.800;2023-01-26T07:51:35;0.30;;;0.10;;
54855;SDS011;40748;53.168;5.800;2023-01-26T07:54:05;0.30;;;0.10;;
54855;SDS011;40748;53.168;5.800;2023-01-26T07:56:35;0.10;;;0.00;;
54855;SDS011;40748;53.168;5.800;2023-01-26T07:59:05;0.10;;;0.00;;
54855;SDS011;40748;53.168;5.800;2023-01-26T08:01:35;0.10;;;0.00;;
54855;SDS011;40748;53.168;5.800;2023-01-26T08:04:05;0.10;;;0.00;;
54855;SDS011;40748;53.168;5.800;2023-01-26T08:06:36;0.10;;;0.00;;
54855;SDS011;40748;53.168;5.800;2023-01-26T08:09:05;0.10;;;0.00;;
54855;SDS011;40748;53.168;5.800;2023-01-26T08:11:35;0.10;;;0.00;;
54855;SDS011;40748;53.168;5.800;2023-01-26T08:14:05;0.10;;;0.00;;
54855;SDS011;40748;53.168;5.800;2023-01-26T08:16:35;0.60;;;0.60;;
54855;SDS011;40748;53.168;5.800;2023-01-26T08:19:05;0.60;;;0.60;;
54855;SDS011;40748;53.168;5.800;2023-01-26T08:21:35;0.60;;;0.60;;
54855;SDS011;40748;53.168;5.800;2023-01-26T08:24:05;0.60;;;0.60;;
54855;SDS011;40748;53.168;5.800;2023-01-26T08:26:35;0.30;;;0.10;;
54855;SDS011;40748;53.168;5.800;2023-01-26T08:29:05;0.30;;;0.10;;
54855;SDS011;40748;53.168;5.800;2023-01-26T08:31:36;0.30;;;0.10;;
54855;SDS011;40748;53.168;5.800;2023-01-26T08:34:05;0.20;;;0.00;;
54855;SDS011;40748;53.168;5.800;2023-01-26T08:36:35;0.20;;;0.00;;
54855;SDS011;40748;53.168;5.800;2023-01-26T08:39:05;0.20;;;0.00;;
54855;SDS011;40748;53.168;5.800;2023-01-26T08:41:35;0.20;;;0.00;;
54855;SDS011;40748;53.168;5.800;2023-01-26T08:44:05;3.00;;;1.40;;
54855;SDS011;40748;53.168;5.800;2023-01-26T08:46:35;3.00;;;1.40;;
54855;SDS011;40748;53.168;5.800;2023-01-26T08:49:05;3.00;;;1.40;;
54855;SDS011;40748;53.168;5.800;2023-01-26T08:51:35;3.00;;;1.40;;
54855;SDS011;40748;53.168;5.800;2023-01-26T08:54:05;0.10;;;0.00;;
54855;SDS011;40748;53.168;5.800;2023-01-26T08:56:35;0.10;;;0.00;;
54855;SDS011;40748;53.168;5.800;2023-01-26T08:59:06;0.10;;;0.00;;
54855;SDS011;40748;53.168;5.800;2023-01-26T09:01:35;0.10;;;0.00;;
54855;SDS011;40748;53.168;5.800;2023-01-26T09:04:05;0.20;;;0.10;;
54855;SDS011;40748;53.168;5.800;2023-01-26T09:06:35;0.20;;;0.10;;
54855;SDS011;40748;53.168;5.800;2023-01-26T09:09:05;0.20;;;0.10;;
54855;SDS011;40748;53.168;5.800;2023-01-26T09:11:35;0.20;;;0.10;;
54855;SDS011;40748;53.168;5.800;2023-01-26T09:14:05;0.10;;;0.00;;
54855;SDS011;40748;53.168;5.800;2023-01-26T09:16:35;0.10;;;0.00;;
54855;SDS011;40748;53.168;5.800;2023-01-26T09:19:05;0.10;;;0.00;;
54855;SDS011;40748;53.168;5.800;2023-01-26T09:21:35;0.10;;;0.00;;
54855;SDS011;40748;53.168;5.800;2023-01-26T09:24:05;0.10;;;0.00;;
54855;SDS011;40748;53.168;5.800;2023-01-26T09:26:35;0.10;;;0.00;;
54855;SDS011;40748;53.168;5.800;2023-01-26T09:29:05;0.10;;;0.00;;
54855;SDS011;40748;53.168;5.800;2023-01-26T09:31:35;0.10;;;0.00;;
54855;SDS011;40748;53.168;5.800;2023-01-26T09:34:05;0.10;;;0.00;;
54855;SDS011;40748;53.168;5.800;2023-01-26T09:36:35;0.10;;;0.00;;
54855;SDS011;40748;53.168;5.800;2023-01-26T09:39:05;0.10;;;0.00;;
54855;SDS011;40748;53.168;5.800;2023-01-26T09:41:49;0.10;;;0.00;;
54855;SDS011;40748;53.168;5.800;2023-01-26T09:44:08;0.10;;;0.00;;
54855;SDS011;40748;53.168;5.800;2023-01-26T09:46:48;0.10;;;0.00;;
54855;SDS011;40748;53.168;5.800;2023-01-26T09:49:06;0.10;;;0.00;;
54855;SDS011;40748;53.168;5.800;2023-01-26T09:51:37;0.10;;;0.00;;
54855;SDS011;40748;53.168;5.800;2023-01-26T09:54:14;0.10;;;0.00;;
54855;SDS011;40748;53.168;5.800;2023-01-26T09:56:35;0.10;;;0.00;;
54855;SDS011;40748;53.168;5.800;2023-01-26T09:59:12;0.10;;;0.00;;
54855;SDS011;40748;53.168;5.800;2023-01-26T10:01:38;0.10;;;0.00;;
54855;SDS011;40748;53.168;5.800;2023-01-26T10:04:12;0.20;;;0.00;;
54855;SDS011;40748;53.168;5.800;2023-01-26T10:06:35;0.20;;;0.00;;
54855;SDS011;40748;53.168;5.800;2023-01-26T10:11:39;0.20;;;0.00;;
54855;SDS011;40748;53.168;5.800;2023-01-26T10:14:12;0.10;;;0.00;;
54855;SDS011;40748;53.168;5.800;2023-01-26T10:16:35;0.10;;;0.00;;
54855;SDS011;40748;53.168;5.800;2023-01-26T10:19:11;0.10;;;0.00;;
54855;SDS011;40748;53.168;5.800;2023-01-26T10:21:38;0.10;;;0.00;;
54855;SDS011;40748;53.168;5.800;2023-01-26T10:24:09;14.30;;;0.60;;
54855;SDS011;40748;53.168;5.800;2023-01-26T10:26:35;14.30;;;0.60;;
54855;SDS011;40748;53.168;5.800;2023-01-26T10:29:05;14.30;;;0.60;;
54855;SDS011;40748;53.168;5.800;2023-01-26T10:31:35;14.30;;;0.60;;
54855;SDS011;40748;53.168;5.800;2023-01-26T10:34:09;2.30;;;0.20;;
54855;SDS011;40748;53.168;5.800;2023-01-26T10:36:35;2.30;;;0.20;;
54855;SDS011;40748;53.168;5.800;2023-01-26T10:39:06;2.30;;;0.20;;
54855;SDS011;40748;53.168;5.800;2023-01-26T10:41:35;2.30;;;0.20;;
54855;SDS011;40748;53.168;5.800;2023-01-26T10:44:20;0.10;;;0.00;;
54855;SDS011;40748;53.168;5.800;2023-01-26T10:46:36;0.10;;;0.00;;
54855;SDS011;40748;53.168;5.800;2023-01-26T10:49:14;0.10;;;0.00;;
54855;SDS011;40748;53.168;5.800;2023-01-26T10:51:37;0.10;;;0.00;;
54855;SDS011;40748;53.168;5.800;2023-01-26T10:54:12;0.20;;;0.00;;
54855;SDS011;40748;53.168;5.800;2023-01-26T10:56:35;0.20;;;0.00;;
54855;SDS011;40748;53.168;5.800;2023-01-26T10:59:07;0.20;;;0.00;;
54855;SDS011;40748;53.168;5.800;2023-01-26T11:01:53;0.20;;;0.00;;
54855;SDS011;40748;53.168;5.800;2023-01-26T11:04:08;0.80;;;0.50;;
54855;SDS011;40748;53.168;5.800;2023-01-26T11:06:35;0.80;;;0.50;;
54855;SDS011;40748;53.168;5.800;2023-01-26T11:09:10;0.80;;;0.50;;
54855;SDS011;40748;53.168;5.800;2023-01-26T11:11:35;0.80;;;0.50;;
54855;SDS011;40748;53.168;5.800;2023-01-26T11:14:10;0.20;;;0.10;;
54855;SDS011;40748;53.168;5.800;2023-01-26T11:19:09;0.20;;;0.10;;
54855;SDS011;40748;53.168;5.800;2023-01-26T11:21:39;0.20;;;0.10;;
54855;SDS011;40748;53.168;5.800;2023-01-26T11:24:11;1.80;;;0.90;;
54855;SDS011;40748;53.168;5.800;2023-01-26T11:26:48;1.80;;;0.90;;
54855;SDS011;40748;53.168;5.800;2023-01-26T11:29:22;1.80;;;0.90;;
54855;SDS011;40748;53.168;5.800;2023-01-26T11:31:43;1.80;;;0.90;;
54855;SDS011;40748;53.168;5.800;2023-01-26T11:34:14;0.20;;;0.00;;
54855;SDS011;40748;53.168;5.800;2023-01-26T11:36:45;0.20;;;0.00;;
54855;SDS011;40748;53.168;5.800;2023-01-26T11:39:14;0.20;;;0.00;;
54855;SDS011;40748;53.168;5.800;2023-01-26T11:41:45;0.20;;;0.00;;
54855;SDS011;40748;53.168;5.800;2023-01-26T11:44:18;0.60;;;0.30;;
54855;SDS011;40748;53.168;5.800;2023-01-26T11:46:47;0.60;;;0.30;;
54855;SDS011;40748;53.168;5.800;2023-01-26T11:49:14;0.60;;;0.30;;
54855;SDS011;40748;53.168;5.800;2023-01-26T11:51:47;0.60;;;0.30;;
54855;SDS011;40748;53.168;5.800;2023-01-26T11:54:17;1.50;;;1.00;;
54855;SDS011;40748;53.168;5.800;2023-01-26T11:56:44;1.50;;;1.00;;
54855;SDS011;40748;53.168;5.800;2023-01-26T11:59:09;1.50;;;1.00;;
54855;SDS011;40748;53.168;5.800;2023-01-26T12:01:40;1.50;;;1.00;;
54855;SDS011;40748;53.168;5.800;2023-01-26T12:04:05;0.10;;;0.00;;
54855;SDS011;40748;53.168;5.800;2023-01-26T12:06:36;0.10;;;0.00;;
54855;SDS011;40748;53.168;5.800;2023-01-26T12:09:09;0.10;;;0.00;;
54855;SDS011;40748;53.168;5.800;2023-01-26T12:11:38;0.10;;;0.00;;
54855;SDS011;40748;53.168;5.800;2023-01-26T12:14:13;0.20;;;0.00;;
54855;SDS011;40748;53.168;5.800;2023-01-26T12:19:12;0.20;;;0.00;;
54855;SDS011;40748;53.168;5.800;2023-01-26T12:21:36;0.20;;;0.00;;
54855;SDS011;40748;53.168;5.800;2023-01-26T12:24:11;0.10;;;0.00;;
54855;SDS011;40748;53.168;5.800;2023-01-26T12:26:42;0.10;;;0.00;;
54855;SDS011;40748;53.168;5.800;2023-01-26T12:29:12;0.10;;;0.00;;
54855;SDS011;40748;53.168;5.800;2023-01-26T12:31:42;0.10;;;0.00;;
54855;SDS011;40748;53.168;5.800;2023-01-26T12:34:11;0.20;;;0.00;;
54855;SDS011;40748;53.168;5.800;2023-01-26T12:36:42;0.20;;;0.00;;
54855;SDS011;40748;53.168;5.800;2023-01-26T12:39:11;0.20;;;0.00;;
54855;SDS011;40748;53.168;5.800;2023-01-26T12:41:44;0.20;;;0.00;;
54855;SDS011;40748;53.168;5.800;2023-01-26T12:44:16;0.20;;;0.00;;
54855;SDS011;40748;53.168;5.800;2023-01-26T12:46:39;0.20;;;0.00;;
54855;SDS011;40748;53.168;5.800;2023-01-26T12:49:11;0.20;;;0.00;;
54855;SDS011;40748;53.168;5.800;2023-01-26T12:51:38;0.20;;;0.00;;
54855;SDS011;40748;53.168;5.800;2023-01-26T12:54:12;0.10;;;0.00;;
54855;SDS011;40748;53.168;5.800;2023-01-26T12:56:39;0.10;;;0.00;;
54855;SDS011;40748;53.168;5.800;2023-01-26T12:59:11;0.10;;;0.00;;
54855;SDS011;40748;53.168;5.800;2023-01-26T13:01:38;0.10;;;0.00;;
54855;SDS011;40748;53.168;5.800;2023-01-26T13:04:08;0.20;;;0.00;;
54855;SDS011;40748;53.168;5.800;2023-01-26T13:06:35;0.20;;;0.00;;
54855;SDS011;40748;53.168;5.800;2023-01-26T13:09:19;0.20;;;0.00;;
54855;SDS011;40748;53.168;5.800;2023-01-26T13:11:46;0.20;;;0.00;;
54855;SDS011;40748;53.168;5.800;2023-01-26T13:14:23;0.20;;;0.00;;
54855;SDS011;40748;53.168;5.800;2023-01-26T13:16:35;0.20;;;0.00;;
54855;SDS011;40748;53.168;5.800;2023-01-26T13:21:41;0.20;;;0.00;;
54855;SDS011;40748;53.168;5.800;2023-01-26T13:26:42;0.80;;;0.60;;
54855;SDS011;40748;53.168;5.800;2023-01-26T13:31:35;0.80;;;0.60;;
54855;SDS011;40748;53.168;5.800;2023-01-26T13:34:06;0.70;;;0.20;;
54855;SDS011;40748;53.168;5.800;2023-01-26T13:36:38;0.70;;;0.20;;
54855;SDS011;40748;53.168;5.800;2023-01-26T13:39:13;0.70;;;0.20;;
54855;SDS011;40748;53.168;5.800;2023-01-26T13:41:43;0.70;;;0.20;;
54855;SDS011;40748;53.168;5.800;2023-01-26T13:44:09;1.40;;;0.10;;
54855;SDS011;40748;53.168;5.800;2023-01-26T13:46:38;1.40;;;0.10;;
54855;SDS011;40748;53.168;5.800;2023-01-26T13:49:23;1.40;;;0.10;;
54855;SDS011;40748;53.168;5.800;2023-01-26T13:51:35;1.40;;;0.10;;
54855;SDS011;40748;53.168;5.800;2023-01-26T13:54:09;0.10;;;0.00;;
54855;SDS011;40748;53.168;5.800;2023-01-26T13:56:36;0.10;;;0.00;;
54855;SDS011;40748;53.168;5.800;2023-01-26T13:59:07;0.10;;;0.00;;
54855;SDS011;40748;53.168;5.800;2023-01-26T14:01:40;0.10;;;0.00;;
54855;SDS011;40748;53.168;5.800;2023-01-26T14:04:06;0.30;;;0.20;;
54855;SDS011;40748;53.168;5.800;2023-01-26T14:06:36;0.30;;;0.20;;
54855;SDS011;40748;53.168;5.800;2023-01-26T14:09:10;0.30;;;0.20;;
54855;SDS011;40748;53.168;5.800;2023-01-26T14:11:35;0.30;;;0.20;;
54855;SDS011;40748;53.168;5.800;2023-01-26T14:14:05;2.10;;;0.30;;
54855;SDS011;40748;53.168;5.800;2023-01-26T14:16:36;2.10;;;0.30;;
54855;SDS011;40748;53.168;5.800;2023-01-26T14:19:13;2.10;;;0.30;;
54855;SDS011;40748;53.168;5.800;2023-01-26T14:21:44;2.10;;;0.30;;
54855;SDS011;40748;53.168;5.800;2023-01-26T14:24:07;0.60;;;0.50;;
54855;SDS011;40748;53.168;5.800;2023-01-26T14:26:35;0.60;;;0.50;;
54855;SDS011;40748;53.168;5.800;2023-01-26T14:29:10;0.60;;;0.50;;
54855;SDS011;40748;53.168;5.800;2023-01-26T14:31:35;0.60;;;0.50;;
54855;SDS011;40748;53.168;5.800;2023-01-26T14:34:09;0.20;;;0.00;;
54855;SDS011;40748;53.168;5.800;2023-01-26T14:36:35;0.20;;;0.00;;
54855;SDS011;40748;53.168;5.800;2023-01-26T14:39:15;0.20;;;0.00;;
54855;SDS011;40748;53.168;5.800;2023-01-26T14:41:35;0.20;;;0.00;;
54855;SDS011;40748;53.168;5.800;2023-01-26T14:44:08;0.60;;;0.20;;
54855;SDS011;40748;53.168;5.800;2023-01-26T14:46:46;0.60;;;0.20;;
54855;SDS011;40748;53.168;5.800;2023-01-26T14:51:36;0.60;;;0.20;;
54855;SDS011;40748;53.168;5.800;2023-01-26T14:54:13;0.10;;;0.00;;
54855;SDS011;40748;53.168;5.800;2023-01-26T14:56:38;0.10;;;0.00;;
54855;SDS011;40748;53.168;5.800;2023-01-26T14:59:06;0.10;;;0.00;;
54855;SDS011;40748;53.168;5.800;2023-01-26T15:01:35;0.10;;;0.00;;
54855;SDS011;40748;53.168;5.800;2023-01-26T15:04:18;0.30;;;0.20;;
54855;SDS011;40748;53.168;5.800;2023-01-26T15:06:35;0.30;;;0.20;;
54855;SDS011;40748;53.168;5.800;2023-01-26T15:09:19;0.30;;;0.20;;
54855;SDS011;40748;53.168;5.800;2023-01-26T15:11:36;0.30;;;0.20;;
54855;SDS011;40748;53.168;5.800;2023-01-26T15:14:23;0.10;;;0.00;;
54855;SDS011;40748;53.168;5.800;2023-01-26T15:16:50;0.10;;;0.00;;
54855;SDS011;40748;53.168;5.800;2023-01-26T15:19:05;0.10;;;0.00;;
54855;SDS011;40748;53.168;5.800;2023-01-26T15:21:37;0.10;;;0.00;;
54855;SDS011;40748;53.168;5.800;2023-01-26T15:24:10;0.50;;;0.30;;
54855;SDS011;40748;53.168;5.800;2023-01-26T15:26:35;0.50;;;0.30;;
54855;SDS011;40748;53.168;5.800;2023-01-26T15:29:17;0.50;;;0.30;;
54855;SDS011;40748;53.168;5.800;2023-01-26T15:31:37;0.50;;;0.30;;
54855;SDS011;40748;53.168;5.800;2023-01-26T15:34:25;7.00;;;0.50;;
54855;SDS011;40748;53.168;5.800;2023-01-26T15:36:46;7.00;;;0.50;;
54855;SDS011;40748;53.168;5.800;2023-01-26T15:39:12;7.00;;;0.50;;
54855;SDS011;40748;53.168;5.800;2023-01-26T15:41:35;7.00;;;0.50;;
54855;SDS011;40748;53.168;5.800;2023-01-26T15:44:09;0.20;;;0.10;;
54855;SDS011;40748;53.168;5.800;2023-01-26T15:46:35;0.20;;;0.10;;
54855;SDS011;40748;53.168;5.800;2023-01-26T15:49:05;0.20;;;0.10;;
54855;SDS011;40748;53.168;5.800;2023-01-26T15:51:35;0.20;;;0.10;;
54855;SDS011;40748;53.168;5.800;2023-01-26T15:54:05;0.50;;;0.20;;